Time,TemperatureF,DewpointF,PressureIn,WindDirection,WindDirectionDegrees,WindSpeedMPH,WindSpeedGustMPH,Humidity,HourlyPrecipIn,Conditions,Clouds,dailyrainin,SoftwareType,DateUTC
2013-01-31 00:03:00,46.4,-99.9,29.31,ENE,62,0.0,0.0,255,0.00,,,0.18,Wunderground v.1.13,2013-01-31 05:03:00,
2013-01-31 00:07:00,46.4,-99.9,29.29,ENE,62,0.0,0.0,255,0.00,,,0.18,Wunderground v.1.13,2013-01-31 05:07:00,
2013-01-31 00:12:00,45.7,45.7,29.29,ENE,62,2.0,2.0,100,0.00,,,0.01,Wunderground v.1.13,2013-01-31 05:12:00,
2013-01-31 00:22:00,45.5,45.5,29.28,ENE,62,0.0,0.0,100,0.00,,,0.01,Wunderground v.1.13,2013-01-31 05:22:00,
2013-01-31 00:27:00,45.2,45.2,29.28,ENE,62,0.0,0.0,100,0.00,,,0.01,Wunderground v.1.13,2013-01-31 05:27:00,
2013-01-31 00:32:00,44.8,44.8,29.28,ENE,62,0.0,0.0,100,0.00,,,0.01,Wunderground v.1.13,2013-01-31 05:32:00,
2013-01-31 00:37:00,44.2,44.2,29.26,ENE,62,0.0,0.0,100,0.00,,,0.02,Wunderground v.1.13,2013-01-31 05:37:00,
2013-01-31 00:42:00,43.5,43.5,29.26,ENE,62,1.0,1.0,100,0.00,,,0.02,Wunderground v.1.13,2013-01-31 05:42:00,
2013-01-31 00:52:00,43.5,43.5,29.24,ENE,62,0.0,0.0,100,0.00,,,0.02,Wunderground v.1.13,2013-01-31 05:52:00,
2013-01-31 00:57:00,43.5,43.5,29.24,ENE,62,0.0,0.0,100,0.00,,,0.02,Wunderground v.1.13,2013-01-31 05:57:00,
2013-01-31 01:03:00,43.2,43.2,29.24,ENE,62,0.0,0.0,100,0.00,,,0.02,Wunderground v.1.13,2013-01-31 06:03:00,
2013-01-31 01:07:00,42.8,42.8,29.22,ENE,62,0.0,2.0,100,0.00,,,0.02,Wunderground v.1.13,2013-01-31 06:07:00,
2013-01-31 01:12:00,42.3,42.3,29.22,ENE,62,0.0,0.0,100,0.00,,,0.02,Wunderground v.1.13,2013-01-31 06:12:00,
2013-01-31 01:22:00,42.1,42.1,29.20,ENE,62,0.0,0.0,100,0.00,,,0.02,Wunderground v.1.13,2013-01-31 06:22:00,
2013-01-31 01:27:00,41.8,41.8,29.20,ENE,62,0.0,1.0,100,0.00,,,0.03,Wunderground v.1.13,2013-01-31 06:27:00,
2013-01-31 01:32:00,41.8,41.8,29.20,ENE,62,0.0,0.0,100,0.00,,,0.03,Wunderground v.1.13,2013-01-31 06:32:00,
2013-01-31 01:37:00,41.5,41.5,29.18,ENE,62,1.0,2.0,100,0.00,,,0.03,Wunderground v.1.13,2013-01-31 06:37:00,
2013-01-31 01:42:00,41.1,41.1,29.18,ENE,62,1.0,1.0,100,0.00,,,0.03,Wunderground v.1.13,2013-01-31 06:42:00,
2013-01-31 01:52:00,41.2,41.2,29.17,ENE,62,1.0,2.0,100,0.00,,,0.04,Wunderground v.1.13,2013-01-31 06:52:00,
2013-01-31 01:57:00,41.6,41.6,29.17,NW,316,1.0,1.0,100,0.00,,,0.04,Wunderground v.1.13,2013-01-31 06:57:00,
2013-01-31 02:03:00,41.8,41.8,29.17,NNE,14,0.0,0.0,100,0.00,,,0.04,Wunderground v.1.13,2013-01-31 07:03:00,
2013-01-31 02:07:00,41.8,41.8,29.15,NNE,13,0.0,0.0,100,0.00,,,0.05,Wunderground v.1.13,2013-01-31 07:07:00,
2013-01-31 02:12:00,41.9,41.9,29.15,NNE,13,0.0,0.0,100,0.00,,,0.05,Wunderground v.1.13,2013-01-31 07:12:00,
2013-01-31 02:17:00,41.8,41.8,29.15,NNE,13,0.0,1.0,100,0.00,,,0.05,Wunderground v.1.13,2013-01-31 07:17:00,
2013-01-31 02:22:00,42.6,42.6,29.14,NW,312,1.0,1.0,100,0.04,,,0.06,Wunderground v.1.13,2013-01-31 07:22:00,
2013-01-31 02:27:00,43.8,43.8,29.14,NNW,336,1.0,1.0,100,0.04,,,0.06,Wunderground v.1.13,2013-01-31 07:27:00,
2013-01-31 02:32:00,44.9,44.9,29.14,North,354,2.0,2.0,100,0.16,,,0.08,Wunderground v.1.13,2013-01-31 07:32:00,
2013-01-31 02:37:00,47.1,47.1,29.11,NNE,18,2.0,2.0,100,0.10,,,0.08,Wunderground v.1.13,2013-01-31 07:37:00,
2013-01-31 02:42:00,47.1,47.1,29.11,West,280,2.0,2.0,100,0.08,,,0.09,Wunderground v.1.13,2013-01-31 07:42:00,
2013-01-31 02:52:00,52.3,52.3,29.08,NW,315,3.0,3.0,100,0.16,,,0.12,Wunderground v.1.13,2013-01-31 07:52:00,
2013-01-31 02:57:00,54.8,54.8,29.08,North,11,4.0,7.0,100,0.09,,,0.12,Wunderground v.1.13,2013-01-31 07:57:00,
2013-01-31 03:03:00,55.3,55.3,29.08,NNE,32,4.0,4.0,100,0.07,,,0.13,Wunderground v.1.13,2013-01-31 08:03:00,
2013-01-31 03:07:00,55.7,55.7,29.05,NW,312,4.0,5.0,100,0.07,,,0.13,Wunderground v.1.13,2013-01-31 08:07:00,
2013-01-31 03:12:00,56.2,56.2,29.05,WSW,251,5.0,7.0,100,0.07,,,0.14,Wunderground v.1.13,2013-01-31 08:12:00,
2013-01-31 03:17:00,56.2,56.2,29.05,NE,40,5.0,5.0,100,0.07,,,0.14,Wunderground v.1.13,2013-01-31 08:17:00,
2013-01-31 03:22:00,56.2,56.2,29.04,North,0,5.0,5.0,100,0.04,,,0.14,Wunderground v.1.13,2013-01-31 08:22:00,
2013-01-31 03:32:00,56.9,56.9,29.04,East,80,6.0,10.0,100,0.00,,,0.15,Wunderground v.1.13,2013-01-31 08:32:00,
2013-01-31 03:37:00,57.0,57.0,29.02,NE,52,6.0,6.0,100,0.08,,,0.16,Wunderground v.1.13,2013-01-31 08:37:00,
2013-01-31 03:42:00,57.0,57.0,29.02,North,354,5.0,5.0,100,0.08,,,0.16,Wunderground v.1.13,2013-01-31 08:42:00,
2013-01-31 03:52:00,57.2,57.2,29.01,NE,45,4.0,4.0,100,0.00,,,0.16,Wunderground v.1.13,2013-01-31 08:52:00,
2013-01-31 03:57:00,57.2,57.2,29.01,ENE,75,4.0,4.0,100,0.00,,,0.16,Wunderground v.1.13,2013-01-31 08:57:00,
2013-01-31 04:03:00,57.0,57.0,29.01,NW,305,4.0,4.0,100,0.00,,,0.16,Wunderground v.1.13,2013-01-31 09:03:00,
2013-01-31 04:12:00,57.6,57.3,28.97,NE,55,4.0,4.0,99,0.00,,,0.17,Wunderground v.1.13,2013-01-31 09:12:00,
2013-01-31 04:17:00,57.5,56.9,28.97,NNW,333,4.0,6.0,98,0.00,,,0.17,Wunderground v.1.13,2013-01-31 09:17:00,
2013-01-31 04:27:00,58.3,57.5,28.94,NNE,27,6.0,9.0,97,0.19,,,0.19,Wunderground v.1.13,2013-01-31 09:27:00,
2013-01-31 04:32:00,58.3,57.2,28.94,NW,308,6.0,6.0,96,0.10,,,0.19,Wunderground v.1.13,2013-01-31 09:32:00,
2013-01-31 04:37:00,58.4,57.3,28.93,North,359,5.0,5.0,96,0.06,,,0.19,Wunderground v.1.13,2013-01-31 09:37:00,
2013-01-31 04:42:00,58.7,57.3,28.93,NE,47,5.0,5.0,95,0.04,,,0.19,Wunderground v.1.13,2013-01-31 09:42:00,
2013-01-31 04:47:00,58.6,57.2,28.93,North,356,5.0,7.0,95,0.00,,,0.20,Wunderground v.1.13,2013-01-31 09:47:00,
2013-01-31 04:52:00,58.7,57.6,28.91,ENE,76,5.0,6.0,96,0.00,,,0.20,Wunderground v.1.13,2013-01-31 09:52:00,
2013-01-31 04:57:00,58.9,57.5,28.91,North,359,6.0,6.0,95,0.06,,,0.21,Wunderground v.1.13,2013-01-31 09:57:00,
2013-01-31 05:03:00,59.2,57.5,28.91,NNW,343,7.0,8.0,94,0.09,,,0.22,Wunderground v.1.13,2013-01-31 10:03:00,
2013-01-31 05:07:00,59.2,57.2,28.88,North,354,8.0,8.0,93,0.09,,,0.22,Wunderground v.1.13,2013-01-31 10:07:00,
2013-01-31 05:12:00,59.2,-99.9,28.88,North,0,7.0,7.0,255,0.19,,,0.24,Wunderground v.1.13,2013-01-31 10:12:00,
2013-01-31 05:17:00,59.3,-99.9,28.88,North,0,6.0,18.0,255,0.33,,,0.26,Wunderground v.1.13,2013-01-31 10:17:00,
2013-01-31 05:27:00,59.0,53.5,28.86,NNW,329,7.0,11.0,82,0.39,,,0.32,Wunderground v.1.13,2013-01-31 10:27:00,
2013-01-31 05:32:00,59.0,53.5,28.86,WNW,284,7.0,7.0,82,0.42,,,0.35,Wunderground v.1.13,2013-01-31 10:32:00,
2013-01-31 05:37:00,59.0,53.8,28.85,SSE,160,6.0,6.0,83,0.22,,,0.37,Wunderground v.1.13,2013-01-31 10:37:00,
2013-01-31 05:47:00,59.5,54.7,28.85,North,8,5.0,5.0,84,0.49,,,0.42,Wunderground v.1.13,2013-01-31 10:47:00,
2013-01-31 05:57:00,59.2,55.3,28.85,NW,313,5.0,6.0,87,0.20,,,0.46,Wunderground v.1.13,2013-01-31 10:57:00,
2013-01-31 06:02:00,59.2,55.3,28.85,NW,309,5.0,6.0,87,0.11,,,0.47,Wunderground v.1.13,2013-01-31 11:02:00,
2013-01-31 06:07:00,59.5,55.6,28.86,ENE,78,6.0,6.0,87,0.30,,,0.49,Wunderground v.1.13,2013-01-31 11:07:00,
2013-01-31 06:12:00,59.5,55.3,28.86,NE,34,6.0,10.0,86,0.22,,,0.51,Wunderground v.1.13,2013-01-31 11:12:00,
2013-01-31 06:17:00,59.5,54.3,28.86,NNE,30,6.0,6.0,83,0.10,,,0.52,Wunderground v.1.13,2013-01-31 11:17:00,
2013-01-31 06:22:00,59.3,53.5,28.86,ENE,71,5.0,5.0,81,0.09,,,0.52,Wunderground v.1.13,2013-01-31 11:22:00,
2013-01-31 06:27:00,59.0,53.5,28.86,North,11,4.0,4.0,82,0.05,,,0.52,Wunderground v.1.13,2013-01-31 11:27:00,
2013-01-31 06:32:00,58.9,53.7,28.86,East,82,3.0,3.0,83,0.04,,,0.52,Wunderground v.1.13,2013-01-31 11:32:00,
2013-01-31 06:37:00,58.6,52.8,28.88,NNE,25,2.0,2.0,81,0.00,,,0.53,Wunderground v.1.13,2013-01-31 11:37:00,
2013-01-31 06:42:00,58.0,52.2,28.88,SE,131,2.0,10.0,81,0.00,,,0.53,Wunderground v.1.13,2013-01-31 11:42:00,
2013-01-31 06:47:00,57.6,50.8,28.88,North,349,2.0,5.0,78,0.07,,,0.54,Wunderground v.1.13,2013-01-31 11:47:00,
2013-01-31 06:52:00,57.5,50.7,28.88,East,97,2.0,2.0,78,0.08,,,0.55,Wunderground v.1.13,2013-01-31 11:52:00,
2013-01-31 06:57:00,57.0,50.2,28.88,WSW,241,2.0,2.0,78,0.08,,,0.55,Wunderground v.1.13,2013-01-31 11:57:00,
2013-01-31 07:03:00,56.9,50.5,28.88,NNE,21,2.0,2.0,79,0.05,,,0.55,Wunderground v.1.13,2013-01-31 12:03:00,
2013-01-31 07:07:00,56.7,50.3,28.85,NNW,342,2.0,3.0,79,0.00,,,0.55,Wunderground v.1.13,2013-01-31 12:07:00,
2013-01-31 07:12:00,56.5,50.1,28.85,NW,306,1.0,2.0,79,0.00,,,0.55,Wunderground v.1.13,2013-01-31 12:12:00,
2013-01-31 07:17:00,56.0,48.5,28.85,NW,306,1.0,1.0,76,0.00,,,0.56,Wunderground v.1.13,2013-01-31 12:17:00,
2013-01-31 07:22:00,55.6,49.2,28.82,NE,56,0.0,1.0,79,0.00,,,0.56,Wunderground v.1.13,2013-01-31 12:22:00,
2013-01-31 07:27:00,54.8,48.4,28.82,NE,56,1.0,1.0,79,0.00,,,0.56,Wunderground v.1.13,2013-01-31 12:27:00,
2013-01-31 07:32:00,53.9,47.5,28.82,NE,56,1.0,2.0,79,0.00,,,0.56,Wunderground v.1.13,2013-01-31 12:32:00,
2013-01-31 07:37:00,53.8,50.0,28.83,NE,56,1.0,1.0,87,0.00,,,0.56,Wunderground v.1.13,2013-01-31 12:37:00,
2013-01-31 07:42:00,53.8,50.9,28.83,North,359,1.0,1.0,90,0.00,,,0.56,Wunderground v.1.13,2013-01-31 12:42:00,
2013-01-31 07:47:00,53.8,50.9,28.83,WNW,288,1.0,1.0,90,0.00,,,0.56,Wunderground v.1.13,2013-01-31 12:47:00,
2013-01-31 07:52:00,54.4,52.4,28.80,NW,312,1.0,3.0,93,0.00,,,0.56,Wunderground v.1.13,2013-01-31 12:52:00,
2013-01-31 07:57:00,54.8,52.2,28.80,SE,137,2.0,2.0,91,0.00,,,0.56,Wunderground v.1.13,2013-01-31 12:57:00,
2013-01-31 08:03:00,55.3,51.8,28.80,NNW,339,2.0,2.0,88,0.00,,,0.57,Wunderground v.1.13,2013-01-31 13:03:00,
2013-01-31 08:07:00,55.7,50.6,28.79,NE,55,3.0,5.0,83,0.00,,,0.57,Wunderground v.1.13,2013-01-31 13:07:00,
2013-01-31 08:12:00,56.2,48.7,28.79,NE,37,4.0,4.0,76,0.00,,,0.57,Wunderground v.1.13,2013-01-31 13:12:00,
2013-01-31 08:17:00,56.3,47.4,28.79,ENE,62,4.0,4.0,72,0.00,,,0.57,Wunderground v.1.13,2013-01-31 13:17:00,
2013-01-31 08:22:00,56.5,45.7,28.79,SSW,210,5.0,6.0,67,0.00,,,0.57,Wunderground v.1.13,2013-01-31 13:22:00,
2013-01-31 08:27:00,56.5,46.1,28.79,NE,49,4.0,11.0,68,0.00,,,0.57,Wunderground v.1.13,2013-01-31 13:27:00,
2013-01-31 08:32:00,55.7,45.3,28.79,East,80,7.0,22.0,68,0.00,,,0.58,Wunderground v.1.13,2013-01-31 13:32:00,
2013-01-31 08:37:00,51.7,21.2,28.85,ESE,113,13.0,16.0,30,0.00,,,0.58,Wunderground v.1.13,2013-01-31 13:37:00,
2013-01-31 08:42:00,49.5,22.9,28.85,ENE,65,16.0,16.0,35,0.00,,,0.58,Wunderground v.1.13,2013-01-31 13:42:00,
2013-01-31 08:47:00,48.3,26.2,28.85,East,90,14.0,20.0,42,0.00,,,0.58,Wunderground v.1.13,2013-01-31 13:47:00,
2013-01-31 08:52:00,47.6,19.9,28.87,East,86,12.0,12.0,33,0.00,,,0.58,Wunderground v.1.13,2013-01-31 13:52:00,
2013-01-31 08:57:00,47.0,15.5,28.87,East,82,13.0,16.0,28,0.00,,,0.58,Wunderground v.1.13,2013-01-31 13:57:00,
2013-01-31 09:03:00,46.5,9.6,28.87,ESE,103,14.0,14.0,22,0.00,,,0.58,Wunderground v.1.13,2013-01-31 14:03:00,
2013-01-31 09:07:00,46.0,12.1,28.90,ESE,121,13.0,24.0,25,0.00,,,0.58,Wunderground v.1.13,2013-01-31 14:07:00,
2013-01-31 09:12:00,45.5,14.2,28.90,East,93,12.0,12.0,28,0.00,,,0.58,Wunderground v.1.13,2013-01-31 14:12:00,
2013-01-31 09:22:00,45.1,11.3,28.91,ESE,112,10.0,14.0,25,0.00,,,0.58,Wunderground v.1.13,2013-01-31 14:22:00,
2013-01-31 09:27:00,44.6,14.3,28.91,ENE,78,11.0,11.0,29,0.00,,,0.58,Wunderground v.1.13,2013-01-31 14:27:00,
2013-01-31 09:32:00,44.2,18.9,28.91,East,97,10.0,14.0,36,0.00,,,0.58,Wunderground v.1.13,2013-01-31 14:32:00,
2013-01-31 09:37:00,43.6,23.6,28.95,East,92,10.0,10.0,45,0.00,,,0.58,Wunderground v.1.13,2013-01-31 14:37:00,
2013-01-31 09:42:00,42.9,27.8,28.95,NE,51,10.0,10.0,55,0.00,,,0.59,Wunderground v.1.13,2013-01-31 14:42:00,
2013-01-31 09:47:00,42.3,28.6,28.95,ESE,110,10.0,10.0,58,0.14,,,0.60,Wunderground v.1.13,2013-01-31 14:47:00,
2013-01-31 09:52:00,42.1,30.8,28.95,ENE,62,8.0,8.0,64,0.13,,,0.61,Wunderground v.1.13,2013-01-31 14:52:00,
2013-01-31 09:57:00,41.9,32.1,28.95,ESE,102,4.0,6.0,68,0.07,,,0.61,Wunderground v.1.13,2013-01-31 14:57:00,
2013-01-31 10:03:00,41.9,31.0,28.95,ESE,107,4.0,6.0,65,0.04,,,0.61,Wunderground v.1.13,2013-01-31 15:03:00,
2013-01-31 10:07:00,42.2,29.7,28.94,East,100,6.0,7.0,61,0.00,,,0.61,Wunderground v.1.13,2013-01-31 15:07:00,
2013-01-31 10:12:00,42.6,24.8,28.94,East,80,9.0,9.0,49,0.00,,,0.62,Wunderground v.1.13,2013-01-31 15:12:00,
2013-01-31 10:22:00,43.1,20.4,28.95,ESE,123,9.0,26.0,40,0.00,,,0.62,Wunderground v.1.13,2013-01-31 15:22:00,
2013-01-31 10:27:00,43.2,3.6,28.95,SSE,148,11.0,16.0,19,0.00,,,0.62,Wunderground v.1.13,2013-01-31 15:27:00,
2013-01-31 10:32:00,43.3,-6.0,28.95,SE,134,12.0,13.0,12,0.00,,,0.62,Wunderground v.1.13,2013-01-31 15:32:00,
2013-01-31 10:37:00,43.1,-8.0,28.96,East,96,12.0,18.0,11,0.00,,,0.62,Wunderground v.1.13,2013-01-31 15:37:00,
2013-01-31 10:42:00,43.1,-12.0,28.96,East,86,11.0,12.0,9,0.00,,,0.62,Wunderground v.1.13,2013-01-31 15:42:00,
2013-01-31 10:47:00,42.9,-17.2,28.96,East,89,10.0,10.0,7,0.00,,,0.62,Wunderground v.1.13,2013-01-31 15:47:00,
2013-01-31 10:52:00,42.9,-20.2,28.98,East,93,10.0,13.0,6,0.00,,,0.62,Wunderground v.1.13,2013-01-31 15:52:00,
2013-01-31 10:57:00,43.1,-32.9,28.98,ESE,109,10.0,13.0,3,0.00,,,0.62,Wunderground v.1.13,2013-01-31 15:57:00,
2013-01-31 11:07:00,42.9,-99.9,28.99,SE,128,13.0,14.0,0,0.00,,,0.62,Wunderground v.1.13,2013-01-31 16:07:00,
2013-01-31 11:12:00,42.6,-99.9,28.99,East,92,13.0,13.0,0,0.00,,,0.62,Wunderground v.1.13,2013-01-31 16:12:00,
2013-01-31 11:22:00,42.5,-99.9,29.00,SSW,193,16.0,16.0,0,0.00,,,0.62,Wunderground v.1.13,2013-01-31 16:22:00,
2013-01-31 11:27:00,42.6,-99.9,29.00,SE,140,15.0,16.0,0,0.00,,,0.62,Wunderground v.1.13,2013-01-31 16:27:00,
2013-01-31 11:32:00,42.6,-99.9,29.00,ENE,58,17.0,17.0,0,0.00,,,0.62,Wunderground v.1.13,2013-01-31 16:32:00,
2013-01-31 11:37:00,42.1,-99.9,29.02,ESE,110,17.0,37.0,0,0.00,,,0.62,Wunderground v.1.13,2013-01-31 16:37:00,
2013-01-31 11:42:00,41.6,41.6,29.02,ESE,104,18.0,19.0,100,0.00,,,0.62,Wunderground v.1.13,2013-01-31 16:42:00,
2013-01-31 11:47:00,41.5,41.5,29.02,ESE,112,18.0,18.0,100,0.00,,,0.62,Wunderground v.1.13,2013-01-31 16:47:00,
2013-01-31 11:52:00,41.2,41.2,29.04,East,86,17.0,27.0,100,0.00,,,0.62,Wunderground v.1.13,2013-01-31 16:52:00,
2013-01-31 11:57:00,41.2,41.2,29.04,ENE,61,19.0,19.0,100,0.00,,,0.62,Wunderground v.1.13,2013-01-31 16:57:00,
2013-01-31 12:03:00,40.9,40.9,29.04,East,93,20.0,24.0,100,0.00,,,0.62,Wunderground v.1.13,2013-01-31 17:03:00,
2013-01-31 12:12:00,40.8,40.8,29.04,ESE,104,18.0,18.0,100,0.00,,,0.62,Wunderground v.1.13,2013-01-31 17:12:00,
2013-01-31 12:22:00,40.6,40.6,29.06,ESE,106,15.0,17.0,100,0.00,,,0.62,Wunderground v.1.13,2013-01-31 17:22:00,
2013-01-31 12:27:00,40.6,40.6,29.06,SE,134,13.0,13.0,100,0.00,,,0.62,Wunderground v.1.13,2013-01-31 17:27:00,
2013-01-31 12:32:00,40.5,40.5,29.06,ESE,103,13.0,13.0,100,0.00,,,0.62,Wunderground v.1.13,2013-01-31 17:32:00,
2013-01-31 12:37:00,40.3,40.3,29.06,SE,137,15.0,27.0,100,0.00,,,0.62,Wunderground v.1.13,2013-01-31 17:37:00,
2013-01-31 12:42:00,40.3,40.3,29.06,East,95,17.0,17.0,100,0.00,,,0.62,Wunderground v.1.13,2013-01-31 17:42:00,
2013-01-31 12:47:00,40.3,40.3,29.06,ESE,107,17.0,25.0,100,0.00,,,0.62,Wunderground v.1.13,2013-01-31 17:47:00,
2013-01-31 12:52:00,40.2,40.2,29.07,ESE,109,17.0,17.0,100,0.00,,,0.62,Wunderground v.1.13,2013-01-31 17:52:00,
2013-01-31 12:57:00,39.9,39.9,29.07,ESE,102,15.0,22.0,100,0.00,,,0.62,Wunderground v.1.13,2013-01-31 17:57:00,
2013-01-31 13:03:00,40.1,40.1,29.07,SSE,160,16.0,16.0,100,0.00,,,0.63,Wunderground v.1.13,2013-01-31 18:03:00,
2013-01-31 13:07:00,40.1,40.1,29.08,East,80,15.0,16.0,100,0.00,,,0.63,Wunderground v.1.13,2013-01-31 18:07:00,
2013-01-31 13:12:00,40.1,40.1,29.08,ESE,117,13.0,13.0,100,0.00,,,0.63,Wunderground v.1.13,2013-01-31 18:12:00,
2013-01-31 13:17:00,40.2,40.2,29.08,East,80,12.0,13.0,100,0.00,,,0.63,Wunderground v.1.13,2013-01-31 18:17:00,
2013-01-31 13:22:00,39.6,39.6,29.09,ESE,116,14.0,14.0,100,0.00,,,0.63,Wunderground v.1.13,2013-01-31 18:22:00,
2013-01-31 13:27:00,39.6,39.6,29.09,East,90,16.0,20.0,100,0.00,,,0.63,Wunderground v.1.13,2013-01-31 18:27:00,
2013-01-31 13:32:00,39.5,39.5,29.09,SE,124,15.0,16.0,100,0.00,,,0.63,Wunderground v.1.13,2013-01-31 18:32:00,
2013-01-31 13:37:00,39.2,39.2,29.11,SE,133,15.0,15.0,100,0.00,,,0.63,Wunderground v.1.13,2013-01-31 18:37:00,
2013-01-31 13:42:00,39.1,39.1,29.11,ESE,103,13.0,13.0,100,0.00,,,0.63,Wunderground v.1.13,2013-01-31 18:42:00,
2013-01-31 13:47:00,38.8,38.8,29.11,ESE,109,13.0,18.0,100,0.00,,,0.63,Wunderground v.1.13,2013-01-31 18:47:00,
2013-01-31 13:52:00,38.6,38.6,29.12,ESE,109,17.0,19.0,100,0.00,,,0.63,Wunderground v.1.13,2013-01-31 18:52:00,
2013-01-31 13:57:00,38.3,38.3,29.12,ESE,112,18.0,18.0,100,0.00,,,0.63,Wunderground v.1.13,2013-01-31 18:57:00,
2013-01-31 14:03:00,38.2,38.2,29.12,East,96,14.0,14.0,100,0.00,,,0.63,Wunderground v.1.13,2013-01-31 19:03:00,
2013-01-31 14:07:00,37.8,37.8,29.14,SSE,151,13.0,28.0,100,0.00,,,0.63,Wunderground v.1.13,2013-01-31 19:07:00,
2013-01-31 14:12:00,37.8,37.8,29.14,ESE,114,16.0,17.0,100,0.00,,,0.63,Wunderground v.1.13,2013-01-31 19:12:00,
2013-01-31 14:22:00,38.0,38.0,29.13,SE,127,15.0,21.0,100,0.00,,,0.63,Wunderground v.1.13,2013-01-31 19:22:00,
2013-01-31 14:27:00,37.8,37.8,29.13,ENE,72,16.0,16.0,100,0.00,,,0.63,Wunderground v.1.13,2013-01-31 19:27:00,
2013-01-31 14:32:00,37.8,37.8,29.13,East,82,15.0,15.0,100,0.00,,,0.63,Wunderground v.1.13,2013-01-31 19:32:00,
2013-01-31 14:37:00,37.9,37.9,29.15,ENE,69,16.0,16.0,100,0.00,,,0.63,Wunderground v.1.13,2013-01-31 19:37:00,
2013-01-31 14:42:00,37.8,37.8,29.15,East,88,18.0,18.0,100,0.00,,,0.63,Wunderground v.1.13,2013-01-31 19:42:00,
2013-01-31 14:47:00,37.5,37.5,29.15,ESE,123,17.0,17.0,100,0.00,,,0.63,Wunderground v.1.13,2013-01-31 19:47:00,
2013-01-31 14:57:00,37.0,37.0,29.16,SE,127,15.0,22.0,100,0.00,,,0.63,Wunderground v.1.13,2013-01-31 19:57:00,
2013-01-31 15:03:00,36.9,36.9,29.16,ESE,116,17.0,17.0,100,0.00,,,0.63,Wunderground v.1.13,2013-01-31 20:03:00,
2013-01-31 15:12:00,36.8,36.8,29.18,ESE,106,15.0,15.0,100,0.00,,,0.63,Wunderground v.1.13,2013-01-31 20:12:00,
2013-01-31 15:17:00,36.6,36.6,29.18,East,89,16.0,16.0,100,0.00,,,0.63,Wunderground v.1.13,2013-01-31 20:17:00,
2013-01-31 15:22:00,36.2,36.2,29.19,SE,133,16.0,18.0,100,0.00,,,0.63,Wunderground v.1.13,2013-01-31 20:22:00,
2013-01-31 15:27:00,35.8,35.8,29.19,East,93,16.0,16.0,100,0.00,,,0.63,Wunderground v.1.13,2013-01-31 20:27:00,
2013-01-31 15:32:00,35.5,35.5,29.19,ESE,104,16.0,16.0,100,0.00,,,0.63,Wunderground v.1.13,2013-01-31 20:32:00,
2013-01-31 15:37:00,35.6,35.6,29.20,ESE,109,17.0,22.0,100,0.00,,,0.63,Wunderground v.1.13,2013-01-31 20:37:00,
2013-01-31 15:42:00,35.5,35.5,29.20,ESE,107,16.0,25.0,100,0.00,,,0.63,Wunderground v.1.13,2013-01-31 20:42:00,
2013-01-31 15:47:00,35.3,35.3,29.20,ENE,72,16.0,16.0,100,0.00,,,0.63,Wunderground v.1.13,2013-01-31 20:47:00,
2013-01-31 15:52:00,35.3,35.3,29.21,NE,42,16.0,16.0,100,0.00,,,0.63,Wunderground v.1.13,2013-01-31 20:52:00,
2013-01-31 15:57:00,35.3,35.3,29.21,ESE,103,17.0,22.0,100,0.00,,,0.63,Wunderground v.1.13,2013-01-31 20:57:00,
2013-01-31 16:03:00,35.3,35.3,29.21,ESE,123,17.0,17.0,100,0.00,,,0.63,Wunderground v.1.13,2013-01-31 21:03:00,
2013-01-31 16:07:00,35.3,35.3,29.22,East,79,13.0,16.0,100,0.00,,,0.63,Wunderground v.1.13,2013-01-31 21:07:00,
2013-01-31 16:12:00,35.2,35.2,29.22,SE,127,14.0,28.0,100,0.00,,,0.63,Wunderground v.1.13,2013-01-31 21:12:00,
2013-01-31 16:17:00,35.2,35.2,29.22,SE,126,17.0,20.0,100,0.00,,,0.63,Wunderground v.1.13,2013-01-31 21:17:00,
2013-01-31 16:22:00,35.0,35.0,29.22,ESE,103,14.0,14.0,100,0.00,,,0.63,Wunderground v.1.13,2013-01-31 21:22:00,
2013-01-31 16:32:00,34.9,34.9,29.22,SE,126,14.0,16.0,100,0.00,,,0.63,Wunderground v.1.13,2013-01-31 21:32:00,
2013-01-31 16:37:00,34.9,34.9,29.23,SE,128,12.0,19.0,100,0.00,,,0.63,Wunderground v.1.13,2013-01-31 21:37:00,
2013-01-31 16:42:00,34.9,34.9,29.23,NE,51,14.0,20.0,100,0.00,,,0.63,Wunderground v.1.13,2013-01-31 21:42:00,
2013-01-31 16:47:00,34.9,34.9,29.23,ENE,73,14.0,21.0,100,0.00,,,0.63,Wunderground v.1.13,2013-01-31 21:47:00,
2013-01-31 16:52:00,34.9,34.9,29.24,ESE,102,15.0,18.0,100,0.00,,,0.63,Wunderground v.1.13,2013-01-31 21:52:00,
2013-01-31 16:57:00,34.7,34.7,29.24,East,93,16.0,16.0,100,0.00,,,0.63,Wunderground v.1.13,2013-01-31 21:57:00,
2013-01-31 17:03:00,34.6,34.6,29.24,ESE,110,13.0,13.0,100,0.00,,,0.63,Wunderground v.1.13,2013-01-31 22:03:00,
2013-01-31 17:07:00,34.4,34.4,29.25,ESE,103,10.0,10.0,100,0.00,,,0.63,Wunderground v.1.13,2013-01-31 22:07:00,
2013-01-31 17:12:00,34.4,34.4,29.25,ESE,107,10.0,14.0,100,0.00,,,0.63,Wunderground v.1.13,2013-01-31 22:12:00,
2013-01-31 17:17:00,34.3,34.3,29.25,SE,127,12.0,19.0,100,0.00,,,0.63,Wunderground v.1.13,2013-01-31 22:17:00,
2013-01-31 17:27:00,34.1,34.1,29.26,East,100,13.0,13.0,100,0.00,,,0.63,Wunderground v.1.13,2013-01-31 22:27:00,
2013-01-31 17:32:00,34.0,34.0,29.26,ESE,123,13.0,13.0,100,0.00,,,0.63,Wunderground v.1.13,2013-01-31 22:32:00,
2013-01-31 17:37:00,33.8,33.8,29.27,ESE,107,15.0,21.0,100,0.00,,,0.63,Wunderground v.1.13,2013-01-31 22:37:00,
2013-01-31 17:42:00,33.7,33.7,29.27,ESE,103,14.0,14.0,100,0.00,,,0.63,Wunderground v.1.13,2013-01-31 22:42:00,
2013-01-31 17:47:00,33.7,33.7,29.27,East,79,13.0,13.0,100,0.00,,,0.63,Wunderground v.1.13,2013-01-31 22:47:00,
2013-01-31 17:52:00,33.7,33.7,29.28,ESE,103,14.0,14.0,100,0.00,,,0.63,Wunderground v.1.13,2013-01-31 22:52:00,
2013-01-31 17:57:00,33.5,33.5,29.28,ESE,121,13.0,13.0,100,0.00,,,0.63,Wunderground v.1.13,2013-01-31 22:57:00,
2013-01-31 18:03:00,33.4,33.4,29.28,ESE,102,11.0,11.0,100,0.00,,,0.63,Wunderground v.1.13,2013-01-31 23:03:00,
2013-01-31 18:07:00,33.2,33.2,29.29,ENE,71,12.0,16.0,100,0.00,,,0.63,Wunderground v.1.13,2013-01-31 23:07:00,
2013-01-31 18:12:00,33.1,33.1,29.29,ESE,107,12.0,12.0,100,0.00,,,0.63,Wunderground v.1.13,2013-01-31 23:12:00,
2013-01-31 18:17:00,33.1,33.1,29.29,ESE,117,10.0,13.0,100,0.00,,,0.63,Wunderground v.1.13,2013-01-31 23:17:00,
2013-01-31 18:22:00,32.9,32.9,29.29,SE,126,11.0,11.0,100,0.00,,,0.63,Wunderground v.1.13,2013-01-31 23:22:00,
2013-01-31 18:27:00,32.9,32.9,29.29,ESE,114,12.0,12.0,100,0.00,,,0.63,Wunderground v.1.13,2013-01-31 23:27:00,
2013-01-31 18:32:00,32.8,32.8,29.29,ESE,104,12.0,13.0,100,0.00,,,0.63,Wunderground v.1.13,2013-01-31 23:32:00,
2013-01-31 18:37:00,32.7,32.7,29.30,ESE,113,11.0,16.0,100,0.00,,,0.63,Wunderground v.1.13,2013-01-31 23:37:00,
2013-01-31 18:42:00,32.5,32.5,29.30,East,88,13.0,13.0,100,0.00,,,0.63,Wunderground v.1.13,2013-01-31 23:42:00,
2013-01-31 18:52:00,32.4,32.4,29.32,SE,133,13.0,13.0,100,0.00,,,0.63,Wunderground v.1.13,2013-01-31 23:52:00,
2013-01-31 18:57:00,32.4,32.4,29.32,SE,128,13.0,16.0,100,0.00,,,0.63,Wunderground v.1.13,2013-01-31 23:57:00,
2013-01-31 19:03:00,32.2,32.2,29.32,North,0,13.0,13.0,100,0.00,,,0.63,Wunderground v.1.13,2013-02-01 00:03:00,
2013-01-31 19:07:00,32.1,32.1,29.34,East,88,11.0,11.0,100,0.00,,,0.63,Wunderground v.1.13,2013-02-01 00:07:00,
2013-01-31 19:12:00,32.1,32.1,29.34,East,88,11.0,12.0,100,0.00,,,0.63,Wunderground v.1.13,2013-02-01 00:12:00,
2013-01-31 19:17:00,32.1,32.1,29.34,ESE,109,12.0,17.0,100,0.00,,,0.63,Wunderground v.1.13,2013-02-01 00:17:00,
2013-01-31 19:27:00,31.9,31.9,29.34,ESE,102,15.0,17.0,100,0.00,,,0.63,Wunderground v.1.13,2013-02-01 00:27:00,
2013-01-31 19:32:00,31.8,31.8,29.34,ESE,104,12.0,13.0,100,0.00,,,0.63,Wunderground v.1.13,2013-02-01 00:32:00,
2013-01-31 19:37:00,31.6,31.6,29.35,ESE,116,11.0,11.0,100,0.00,,,0.63,Wunderground v.1.13,2013-02-01 00:37:00,
2013-01-31 19:42:00,31.6,31.6,29.35,East,90,12.0,17.0,100,0.00,,,0.63,Wunderground v.1.13,2013-02-01 00:42:00,
2013-01-31 19:47:00,31.5,31.5,29.35,East,93,14.0,27.0,100,0.00,,,0.63,Wunderground v.1.13,2013-02-01 00:47:00,
2013-01-31 19:52:00,31.5,31.5,29.36,ENE,68,16.0,22.0,100,0.00,,,0.63,Wunderground v.1.13,2013-02-01 00:52:00,
2013-01-31 19:57:00,31.3,31.3,29.36,ESE,109,15.0,15.0,100,0.00,,,0.63,Wunderground v.1.13,2013-02-01 00:57:00,
2013-01-31 20:02:00,31.2,31.2,29.36,SE,130,12.0,17.0,100,0.00,,,0.63,Wunderground v.1.13,2013-02-01 01:02:00,
2013-01-31 20:07:00,31.0,31.0,29.37,East,79,12.0,12.0,100,0.00,,,0.63,Wunderground v.1.13,2013-02-01 01:07:00,
2013-01-31 20:12:00,30.9,30.9,29.37,East,97,13.0,13.0,100,0.00,,,0.63,Wunderground v.1.13,2013-02-01 01:12:00,
2013-01-31 20:17:00,30.7,30.7,29.37,South,174,13.0,13.0,100,0.00,,,0.63,Wunderground v.1.13,2013-02-01 01:17:00,
2013-01-31 20:27:00,30.7,30.7,29.38,ENE,61,13.0,13.0,100,0.00,,,0.63,Wunderground v.1.13,2013-02-01 01:27:00,
2013-01-31 20:32:00,30.6,30.6,29.38,East,100,15.0,15.0,100,0.00,,,0.63,Wunderground v.1.13,2013-02-01 01:32:00,
2013-01-31 20:37:00,30.4,30.4,29.38,ESE,116,13.0,13.0,100,0.00,,,0.63,Wunderground v.1.13,2013-02-01 01:37:00,
2013-01-31 20:42:00,30.4,30.4,29.38,ESE,103,10.0,16.0,100,0.00,,,0.63,Wunderground v.1.13,2013-02-01 01:42:00,
2013-01-31 20:47:00,30.4,30.4,29.38,NE,40,12.0,12.0,100,0.00,,,0.63,Wunderground v.1.13,2013-02-01 01:47:00,
2013-01-31 20:52:00,30.3,30.3,29.39,SE,127,12.0,12.0,100,0.00,,,0.63,Wunderground v.1.13,2013-02-01 01:52:00,
2013-01-31 20:57:00,30.3,30.3,29.39,ENE,66,11.0,11.0,100,0.00,,,0.63,Wunderground v.1.13,2013-02-01 01:57:00,
2013-01-31 21:03:00,30.3,30.3,29.39,ESE,120,12.0,12.0,100,0.00,,,0.63,Wunderground v.1.13,2013-02-01 02:03:00,
2013-01-31 21:12:00,30.0,30.0,29.39,ESE,117,11.0,14.0,100,0.00,,,0.63,Wunderground v.1.13,2013-02-01 02:12:00,
2013-01-31 21:17:00,30.0,30.0,29.39,East,80,12.0,12.0,100,0.00,,,0.63,Wunderground v.1.13,2013-02-01 02:17:00,
2013-01-31 21:22:00,30.0,30.0,29.41,SE,127,12.0,12.0,100,0.00,,,0.63,Wunderground v.1.13,2013-02-01 02:22:00,
2013-01-31 21:27:00,29.8,29.8,29.41,ENE,65,9.0,9.0,100,0.00,,,0.63,Wunderground v.1.13,2013-02-01 02:27:00,
2013-01-31 21:32:00,29.7,29.7,29.41,ESE,106,9.0,12.0,100,0.00,,,0.63,Wunderground v.1.13,2013-02-01 02:32:00,
2013-01-31 21:37:00,29.5,29.5,29.41,ENE,73,9.0,10.0,100,0.00,,,0.63,Wunderground v.1.13,2013-02-01 02:37:00,
2013-01-31 21:42:00,29.5,29.5,29.41,ESE,109,9.0,19.0,100,0.00,,,0.63,Wunderground v.1.13,2013-02-01 02:42:00,
2013-01-31 21:47:00,29.5,29.5,29.41,East,99,12.0,12.0,100,0.00,,,0.63,Wunderground v.1.13,2013-02-01 02:47:00,
2013-01-31 21:52:00,29.4,29.4,29.41,SE,128,11.0,14.0,100,0.00,,,0.63,Wunderground v.1.13,2013-02-01 02:52:00,
2013-01-31 21:57:00,29.4,29.4,29.41,ESE,123,10.0,10.0,100,0.00,,,0.63,Wunderground v.1.13,2013-02-01 02:57:00,
2013-01-31 22:03:00,29.3,29.3,29.41,ENE,71,10.0,13.0,100,0.00,,,0.63,Wunderground v.1.13,2013-02-01 03:03:00,
2013-01-31 22:07:00,29.3,29.3,29.42,ESE,104,9.0,11.0,100,0.00,,,0.63,Wunderground v.1.13,2013-02-01 03:07:00,
2013-01-31 22:12:00,29.1,29.1,29.42,SE,130,9.0,9.0,100,0.00,,,0.63,Wunderground v.1.13,2013-02-01 03:12:00,
2013-01-31 22:22:00,29.1,29.1,29.42,ESE,119,9.0,10.0,100,0.00,,,0.63,Wunderground v.1.13,2013-02-01 03:22:00,
2013-01-31 22:27:00,29.1,29.1,29.42,SE,130,11.0,13.0,100,0.00,,,0.63,Wunderground v.1.13,2013-02-01 03:27:00,
2013-01-31 22:32:00,29.1,29.1,29.42,SE,145,12.0,12.0,100,0.00,,,0.63,Wunderground v.1.13,2013-02-01 03:32:00,
2013-01-31 22:37:00,29.1,29.1,29.42,ESE,103,12.0,12.0,100,0.00,,,0.63,Wunderground v.1.13,2013-02-01 03:37:00,
2013-01-31 22:42:00,29.0,29.0,29.42,NE,49,10.0,10.0,100,0.00,,,0.63,Wunderground v.1.13,2013-02-01 03:42:00,
2013-01-31 22:47:00,29.0,29.0,29.42,SE,136,9.0,9.0,100,0.00,,,0.63,Wunderground v.1.13,2013-02-01 03:47:00,
2013-01-31 22:52:00,28.8,28.8,29.42,NE,56,9.0,12.0,100,0.00,,,0.63,Wunderground v.1.13,2013-02-01 03:52:00,
2013-01-31 22:57:00,28.8,28.8,29.42,ESE,104,12.0,12.0,100,0.00,,,0.63,Wunderground v.1.13,2013-02-01 03:57:00,
2013-01-31 23:03:00,28.8,28.8,29.42,ENE,71,13.0,13.0,100,0.00,,,0.63,Wunderground v.1.13,2013-02-01 04:03:00,
2013-01-31 23:07:00,28.7,28.7,29.43,East,86,11.0,11.0,100,0.00,,,0.63,Wunderground v.1.13,2013-02-01 04:07:00,
2013-01-31 23:12:00,28.7,28.7,29.43,East,82,9.0,17.0,100,0.00,,,0.63,Wunderground v.1.13,2013-02-01 04:12:00,
2013-01-31 23:17:00,28.5,28.5,29.43,ENE,78,10.0,10.0,100,0.00,,,0.63,Wunderground v.1.13,2013-02-01 04:17:00,
2013-01-31 23:22:00,28.5,28.5,29.43,ENE,75,12.0,12.0,100,0.00,,,0.63,Wunderground v.1.13,2013-02-01 04:22:00,
2013-01-31 23:27:00,28.5,28.5,29.43,ENE,66,12.0,12.0,100,0.00,,,0.63,Wunderground v.1.13,2013-02-01 04:27:00,
2013-01-31 23:32:00,28.5,28.5,29.43,SE,145,11.0,11.0,100,0.00,,,0.63,Wunderground v.1.13,2013-02-01 04:32:00,
2013-01-31 23:37:00,28.4,28.4,29.43,ESE,107,9.0,9.0,100,0.00,,,0.63,Wunderground v.1.13,2013-02-01 04:37:00,
2013-01-31 23:42:00,28.4,28.4,29.43,East,88,9.0,9.0,100,0.00,,,0.63,Wunderground v.1.13,2013-02-01 04:42:00,
2013-01-31 23:47:00,28.4,28.4,29.43,ESE,109,8.0,11.0,100,0.00,,,0.63,Wunderground v.1.13,2013-02-01 04:47:00,
2013-01-31 23:52:00,28.2,28.2,29.44,SSE,154,7.0,7.0,100,0.00,,,0.63,Wunderground v.1.13,2013-02-01 04:52:00,
2013-01-31 23:57:00,28.2,28.2,29.44,SE,127,9.0,9.0,100,0.00,,,0.63,Wunderground v.1.13,2013-02-01 04:57:00,